Terminal Aerodrome Forecast
Issued by NWS

Home | Current Version | Previous Version | Text Only | Print | Product List | Glossary On
Versions: 1 2 3 4 5 6 7 8 9 10 11 12 13 14 15 16 17 18 19 20
000
FTUS43 KLSX 171033 AAB
TAFUIN
TAF AMD
KUIN 171033Z 1711/1806 23008KT P6SM SCT008 OVC012
      TEMPO 1711/1714 BKN008
     FM171600 26013G19KT P6SM SCT030
     FM180100 27007KT P6SM SKC=

USA.gov is the U.S. government's official web portal to all federal, state and local government web resources and services.